Aviation Digital Data Service (ADDS)

Output produced by METARs form (0832 UTC 21 January 2017)
found at http://www.aviationweather.gov/adds/metars/
 
KJFK 210803Z 2108/2212 23005KT 4SM BR SCT005 OVC012 
     TEMPO 2109/2112 BKN005 OVC012 
     FM211500 25006KT 5SM BR SCT008 BKN012 
     FM211800 23008KT P6SM BKN020 
     FM220000 24004KT 5SM BR OVC012 
     TEMPO 2203/2206 23003KT 1/2SM FG OVC005 
     FM220600 24003KT 1/2SM FG OVC004